Time;durP1;ratioP1;P1;durP2;ratioP2;P2;SDS_P1;SDS_P2;PMS_P1;PMS_P2;Temp;Humidity;BMP_temperature;BMP_pressure;BME280_temperature;BME280_humidity;BME280_pressure;Samples;Min_cycle;Max_cycle;Signal;HPM_P1;HPM_P2
2023/01/30 00:00:15;;;;;;;;;;;;;;;;;;4988023;28;19961;-79
2023/01/30 00:02:42;;;;;;;;;;;;;;;;;;4973995;28;19930;-78
2023/01/30 00:05:08;;;;;;;;;;;;;;;;;;4986773;28;19940;-79
2023/01/30 00:07:34;;;;;;;;;;;;;;;;;;4980643;28;19925;-78
2023/01/30 00:10:01;;;;;;;;;;;;;;;;;;4994453;28;19921;-78
2023/01/30 00:12:27;;;;;;;;;;;;;;;;;;4985781;28;19976;-79
2023/01/30 00:14:53;;;;;;;;;;;;;;;;;;4979801;28;19913;-79
2023/01/30 00:17:19;;;;;;;;;;;;;;;;;;4994315;28;19925;-78
2023/01/30 00:19:46;;;;;;;;;;;;;;;;;;4985914;28;19972;-78
2023/01/30 00:22:12;;;;;;;;;;;;;;;;;;4997967;28;19926;-79
2023/01/30 00:24:38;;;;;;;;;;;;;;;;;;4977485;28;19924;-78
2023/01/30 00:27:04;;;;;;;;;;;;;;;;;;4986708;28;20018;-78
2023/01/30 00:29:30;;;;;;;;;;;;;;;;;;4994875;28;20322;-78
2023/01/30 00:31:57;;;;;;;;;;;;;;;;;;5001356;28;19926;-78
2023/01/30 00:34:23;;;;;;;;;;;;;;;;;;4992211;28;19969;-78
2023/01/30 00:36:49;;;;;;;;;;;;;;;;;;5003257;28;20362;-78
2023/01/30 00:39:15;;;;;;;;;;;;;;;;;;4989768;28;19922;-79
2023/01/30 00:47:11;;;;;;;;;;;;;;;;;;4978524;28;20092;-79
2023/01/30 00:49:37;;;;;;;;;;;;;;;;;;4990681;28;19917;-79
2023/01/30 00:52:04;;;;;;;;;;;;;;;;;;4993673;28;19926;-79
2023/01/30 00:54:30;;;;;;;;;;;;;;;;;;4966561;28;19920;-80
2023/01/30 00:56:56;;;;;;;;;;;;;;;;;;4967664;28;19945;-79
2023/01/30 00:59:22;;;;;;;;;;;;;;;;;;4969977;28;20388;-79
2023/01/30 01:01:48;;;;;;;;;;;;;;;;;;4964282;28;19981;-78
2023/01/30 01:04:15;;;;;;;;;;;;;;;;;;4964101;28;20373;-79
2023/01/30 01:06:41;;;;;;;;;;;;;;;;;;4980313;28;19969;-80
2023/01/30 01:09:07;;;;;;;;;;;;;;;;;;4967704;28;19925;-79
2023/01/30 01:11:33;;;;;;;;;;;;;;;;;;4961548;28;19922;-80
2023/01/30 01:13:59;;;;;;;;;;;;;;;;;;4970264;28;20373;-80
2023/01/30 01:16:26;;;;;;;;;;;;;;;;;;4948447;28;19980;-80
2023/01/30 01:18:52;;;;;;;;;;;;;;;;;;4959474;28;19918;-80
2023/01/30 01:21:18;;;;;;;;;;;;;;;;;;4977708;28;19937;-79
2023/01/30 01:23:45;;;;;;;;;;;;;;;;;;4970152;28;19930;-79
2023/01/30 01:26:11;;;;;;;;;;;;;;;;;;4984905;28;20373;-79
2023/01/30 01:28:37;;;;;;;;;;;;;;;;;;4975072;28;19929;-79
2023/01/30 01:31:03;;;;;;;;;;;;;;;;;;4962425;28;19960;-79
2023/01/30 01:33:29;;;;;;;;;;;;;;;;;;4969100;28;19917;-79
2023/01/30 01:35:56;;;;;;;;;;;;;;;;;;4990338;28;19949;-79
2023/01/30 01:38:22;;;;;;;;;;;;;;;;;;4989852;28;19914;-79
2023/01/30 01:41:00;;;;;;;;;;;;;;;;;;4975559;28;19913;-79
2023/01/30 01:43:27;;;;;;;;;;;;;;;;;;4986859;28;19923;-79
2023/01/30 01:45:53;;;;;;;;;;;;;;;;;;4982851;28;19920;-79
2023/01/30 01:48:19;;;;;;;;;;;;;;;;;;4968399;28;19933;-78
2023/01/30 01:50:45;;;;;;;;;;;;;;;;;;4970154;28;19922;-78
2023/01/30 01:53:11;;;;;;;;;;;;;;;;;;4969211;28;19929;-79
2023/01/30 01:55:38;;;;;;;;;;;;;;;;;;4986074;28;20384;-79
2023/01/30 01:58:04;;;;;;;;;;;;;;;;;;4979761;28;19917;-79
2023/01/30 02:00:30;;;;;;;;;;;;;;;;;;4998921;28;19925;-79
2023/01/30 02:02:56;;;;;;;;;;;;;;;;;;5006126;28;20349;-79
2023/01/30 02:05:23;;;;;;;;;;;;;;;;;;4979905;28;19924;-79
2023/01/30 02:07:49;;;;;;;;;;;;;;;;;;4983635;28;20015;-79
2023/01/30 02:10:15;;;;;;;;;;;;;;;;;;4981511;28;19941;-80
2023/01/30 02:12:41;;;;;;;;;;;;;;;;;;4999689;28;20109;-79
2023/01/30 02:15:08;;;;;;;;;;;;;;;;;;5007140;28;19964;-79
2023/01/30 02:17:34;;;;;;;;;;;;;;;;;;4983039;28;19957;-80
2023/01/30 02:20:00;;;;;;;;;;;;;;;;;;4993152;28;19921;-79
2023/01/30 02:22:26;;;;;;;;;;;;;;;;;;5006221;28;19925;-79
2023/01/30 02:24:52;;;;;;;;;;;;;;;;;;4981217;28;19914;-79
2023/01/30 02:27:19;;;;;;;;;;;;;;;;;;4984570;28;20402;-79
2023/01/30 02:29:45;;;;;;;;;;;;;;;;;;4973619;28;19929;-79
2023/01/30 02:32:11;;;;;;;;;;;;;;;;;;4984280;28;19918;-80
2023/01/30 02:34:37;;;;;;;;;;;;;;;;;;4962657;28;19921;-78
2023/01/30 02:37:04;;;;;;;;;;;;;;;;;;4985410;28;19914;-78
2023/01/30 02:39:30;;;;;;;;;;;;;;;;;;5007101;28;19933;-80
2023/01/30 02:41:56;;;;;;;;;;;;;;;;;;4988347;28;20374;-80
2023/01/30 02:44:22;;;;;;;;;;;;;;;;;;4988252;28;19975;-79
2023/01/30 02:46:49;;;;;;;;;;;;;;;;;;4988542;28;19913;-77
2023/01/30 02:49:15;;;;;;;;;;;;;;;;;;5006285;28;19929;-77
2023/01/30 02:51:41;;;;;;;;;;;;;;;;;;4987450;28;19933;-78
2023/01/30 02:54:07;;;;;;;;;;;;;;;;;;5010861;28;19917;-79
2023/01/30 02:56:33;;;;;;;;;;;;;;;;;;5003182;28;19921;-78
2023/01/30 02:59:00;;;;;;;;;;;;;;;;;;4982973;28;19917;-79
2023/01/30 03:01:26;;;;;;;;;;;;;;;;;;4979524;28;19925;-79
2023/01/30 03:03:52;;;;;;;;;;;;;;;;;;5006715;28;19928;-79
2023/01/30 03:06:18;;;;;;;;;;;;;;;;;;5009775;28;19913;-79
2023/01/30 03:08:45;;;;;;;;;;;;;;;;;;4981428;28;20312;-79
2023/01/30 03:11:11;;;;;;;;;;;;;;;;;;4986364;28;19964;-80
2023/01/30 03:13:37;;;;;;;;;;;;;;;;;;5003131;28;19922;-78
2023/01/30 03:16:03;;;;;;;;;;;;;;;;;;4983814;28;19941;-80
2023/01/30 03:18:29;;;;;;;;;;;;;;;;;;4983974;28;19918;-80
2023/01/30 03:20:56;;;;;;;;;;;;;;;;;;4987117;28;19957;-79
2023/01/30 03:23:22;;;;;;;;;;;;;;;;;;4988351;28;20333;-80
2023/01/30 03:25:48;;;;;;;;;;;;;;;;;;4985864;28;19920;-80
2023/01/30 03:28:14;;;;;;;;;;;;;;;;;;4977718;28;20385;-80
2023/01/30 03:30:41;;;;;;;;;;;;;;;;;;4986097;28;19968;-79
2023/01/30 03:33:07;;;;;;;;;;;;;;;;;;4977220;28;19990;-78
2023/01/30 03:35:33;;;;;;;;;;;;;;;;;;5006170;28;19963;-81
2023/01/30 03:37:59;;;;;;;;;;;;;;;;;;4984225;28;19953;-81
2023/01/30 03:40:26;;;;;;;;;;;;;;;;;;4998298;28;20328;-78
2023/01/30 03:42:52;;;;;;;;;;;;;;;;;;5003484;28;19925;-81
2023/01/30 03:45:18;;;;;;;;;;;;;;;;;;4993192;28;19917;-80
2023/01/30 03:47:44;;;;;;;;;;;;;;;;;;5004228;28;19929;-81
2023/01/30 03:50:10;;;;;;;;;;;;;;;;;;5007707;28;19921;-78
2023/01/30 03:52:37;;;;;;;;;;;;;;;;;;4992438;28;19930;-79
2023/01/30 03:55:03;;;;;;;;;;;;;;;;;;4977301;28;19918;-79
2023/01/30 03:57:29;;;;;;;;;;;;;;;;;;4966601;28;19922;-79
2023/01/30 03:59:56;;;;;;;;;;;;;;;;;;4961965;28;19997;-79
2023/01/30 04:02:22;;;;;;;;;;;;;;;;;;4971001;28;19917;-80
2023/01/30 04:04:48;;;;;;;;;;;;;;;;;;4960696;28;19965;-79
2023/01/30 04:07:14;;;;;;;;;;;;;;;;;;4970631;28;19997;-79
2023/01/30 04:09:40;;;;;;;;;;;;;;;;;;4966699;28;19926;-79
2023/01/30 04:12:07;;;;;;;;;;;;;;;;;;4962641;28;20382;-79
2023/01/30 04:14:33;;;;;;;;;;;;;;;;;;4946619;28;19996;-78
2023/01/30 04:16:59;;;;;;;;;;;;;;;;;;4985233;28;19922;-78
2023/01/30 04:19:25;;;;;;;;;;;;;;;;;;5002919;28;20307;-77
2023/01/30 04:21:52;;;;;;;;;;;;;;;;;;4984754;28;19921;-79
2023/01/30 04:24:18;;;;;;;;;;;;;;;;;;4993386;28;19921;-79
2023/01/30 04:26:44;;;;;;;;;;;;;;;;;;4974366;28;19922;-79
2023/01/30 04:29:10;;;;;;;;;;;;;;;;;;4964310;28;19997;-79
2023/01/30 04:31:36;;;;;;;;;;;;;;;;;;4965021;28;19984;-79
2023/01/30 04:34:03;;;;;;;;;;;;;;;;;;4959953;28;19918;-79
2023/01/30 04:36:29;;;;;;;;;;;;;;;;;;4987631;28;19933;-79
2023/01/30 04:38:57;;;;;;;;;;;;;;;;;;4972381;28;19923;-79
2023/01/30 04:41:23;;;;;;;;;;;;;;;;;;4978253;28;20481;-79
2023/01/30 04:43:49;;;;;;;;;;;;;;;;;;4979554;28;19921;-79
2023/01/30 04:46:15;;;;;;;;;;;;;;;;;;4969006;28;19941;-78
2023/01/30 04:48:41;;;;;;;;;;;;;;;;;;4978690;28;19934;-81
2023/01/30 04:51:08;;;;;;;;;;;;;;;;;;4972938;28;19926;-81
2023/01/30 04:53:34;;;;;;;;;;;;;;;;;;4983763;28;20377;-80
2023/01/30 04:56:00;;;;;;;;;;;;;;;;;;4959992;28;19989;-80
2023/01/30 04:58:26;;;;;;;;;;;;;;;;;;4993112;28;19953;-80
2023/01/30 05:00:52;;;;;;;;;;;;;;;;;;4990570;28;19918;-79
2023/01/30 05:03:19;;;;;;;;;;;;;;;;;;4983215;28;19922;-80
2023/01/30 05:05:45;;;;;;;;;;;;;;;;;;4961565;28;19928;-83
2023/01/30 05:08:11;;;;;;;;;;;;;;;;;;4972799;28;20335;-82
2023/01/30 05:10:37;;;;;;;;;;;;;;;;;;4969724;28;19968;-81
2023/01/30 05:13:04;;;;;;;;;;;;;;;;;;4971460;28;19941;-83
2023/01/30 05:15:30;;;;;;;;;;;;;;;;;;4969277;28;19913;-81
2023/01/30 05:17:56;;;;;;;;;;;;;;;;;;4976836;28;19925;-81
2023/01/30 05:20:22;;;;;;;;;;;;;;;;;;4967876;28;19918;-82
2023/01/30 05:22:48;;;;;;;;;;;;;;;;;;4949590;28;19918;-82
2023/01/30 05:25:15;;;;;;;;;;;;;;;;;;4984705;28;20312;-80
2023/01/30 05:27:41;;;;;;;;;;;;;;;;;;4959836;28;19976;-80
2023/01/30 05:30:07;;;;;;;;;;;;;;;;;;4976192;28;19926;-79
2023/01/30 05:32:34;;;;;;;;;;;;;;;;;;4975639;28;19918;-83
2023/01/30 05:35:00;;;;;;;;;;;;;;;;;;4963517;28;19918;-80
2023/01/30 05:37:26;;;;;;;;;;;;;;;;;;4986408;28;19964;-80
2023/01/30 05:39:52;;;;;;;;;;;;;;;;;;4971808;28;19969;-80
2023/01/30 05:42:19;;;;;;;;;;;;;;;;;;4956285;28;19918;-80
2023/01/30 05:44:45;;;;;;;;;;;;;;;;;;4959290;28;19918;-80
2023/01/30 05:47:11;;;;;;;;;;;;;;;;;;4966089;28;19961;-80
2023/01/30 05:49:37;;;;;;;;;;;;;;;;;;4984948;28;19929;-80
2023/01/30 05:52:03;;;;;;;;;;;;;;;;;;4984349;28;20411;-80
2023/01/30 05:54:30;;;;;;;;;;;;;;;;;;5004937;28;19922;-80
2023/01/30 05:56:56;;;;;;;;;;;;;;;;;;4986112;28;19965;-80
2023/01/30 05:59:22;;;;;;;;;;;;;;;;;;4963661;28;19918;-80
2023/01/30 06:01:48;;;;;;;;;;;;;;;;;;4996515;28;19918;-80
2023/01/30 06:04:15;;;;;;;;;;;;;;;;;;4996835;28;19941;-80
2023/01/30 06:06:41;;;;;;;;;;;;;;;;;;4986627;28;20288;-79
2023/01/30 06:09:07;;;;;;;;;;;;;;;;;;4955726;28;19937;-79
2023/01/30 06:11:33;;;;;;;;;;;;;;;;;;4988906;28;19921;-79
2023/01/30 06:13:59;;;;;;;;;;;;;;;;;;4967196;28;19918;-79
2023/01/30 06:16:26;;;;;;;;;;;;;;;;;;4993326;28;20401;-80
2023/01/30 06:18:52;;;;;;;;;;;;;;;;;;4989535;28;19996;-79
2023/01/30 06:21:18;;;;;;;;;;;;;;;;;;4975960;28;19926;-79
2023/01/30 06:23:45;;;;;;;;;;;;;;;;;;4983493;28;20001;-79
2023/01/30 06:26:11;;;;;;;;;;;;;;;;;;4976018;28;19918;-79
2023/01/30 06:28:41;;;;;;;;;;;;;;;;;;4974663;28;21613;-79
2023/01/30 06:31:07;;;;;;;;;;;;;;;;;;4996997;28;19972;-79
2023/01/30 06:33:34;;;;;;;;;;;;;;;;;;4982257;28;19964;-80
2023/01/30 06:36:00;;;;;;;;;;;;;;;;;;4958821;28;19972;-79
2023/01/30 06:38:26;;;;;;;;;;;;;;;;;;4946099;28;20050;-80
2023/01/30 06:40:52;;;;;;;;;;;;;;;;;;4995425;28;20333;-79
2023/01/30 06:43:18;;;;;;;;;;;;;;;;;;4990961;28;19939;-80
2023/01/30 06:45:45;;;;;;;;;;;;;;;;;;4962686;28;19918;-80
2023/01/30 06:48:11;;;;;;;;;;;;;;;;;;4976491;28;19933;-80
2023/01/30 06:50:37;;;;;;;;;;;;;;;;;;4988816;28;19960;-76
2023/01/30 06:53:04;;;;;;;;;;;;;;;;;;5009329;28;19930;-77
2023/01/30 06:55:33;;;;;;;;;;;;;;;;;;4979789;28;19922;-77
2023/01/30 06:57:59;;;;;;;;;;;;;;;;;;4962377;28;19929;-76
2023/01/30 07:00:25;;;;;;;;;;;;;;;;;;4974045;28;20020;-77
2023/01/30 07:02:52;;;;;;;;;;;;;;;;;;4964062;28;19918;-77
2023/01/30 07:05:18;;;;;;;;;;;;;;;;;;4989949;28;19918;-77
2023/01/30 07:07:44;;;;;;;;;;;;;;;;;;4964059;28;20390;-77
2023/01/30 07:10:14;;;;;;;;;;;;;;;;;;4962231;28;20293;-77
2023/01/30 07:12:40;;;;;;;;;;;;;;;;;;4968411;28;19968;-77
2023/01/30 07:15:06;;;;;;;;;;;;;;;;;;4960678;28;19945;-76
2023/01/30 07:17:32;;;;;;;;;;;;;;;;;;4961006;28;19929;-77
2023/01/30 07:19:59;;;;;;;;;;;;;;;;;;4973142;28;20012;-76
2023/01/30 07:22:25;;;;;;;;;;;;;;;;;;4945641;28;20508;-77
2023/01/30 07:24:51;;;;;;;;;;;;;;;;;;4971331;28;19928;-77
2023/01/30 07:27:17;;;;;;;;;;;;;;;;;;4954758;28;19992;-76
2023/01/30 07:29:44;;;;;;;;;;;;;;;;;;4974068;28;19934;-76
2023/01/30 07:32:10;;;;;;;;;;;;;;;;;;4973727;28;20380;-78
2023/01/30 07:34:36;;;;;;;;;;;;;;;;;;4976278;28;19977;-77
2023/01/30 07:37:02;;;;;;;;;;;;;;;;;;4973218;28;19935;-77
2023/01/30 07:39:28;;;;;;;;;;;;;;;;;;4960156;28;19918;-78
2023/01/30 07:41:55;;;;;;;;;;;;;;;;;;4963722;28;19926;-77
2023/01/30 07:44:21;;;;;;;;;;;;;;;;;;4992808;28;19928;-77
2023/01/30 07:46:47;;;;;;;;;;;;;;;;;;4962162;28;20373;-77
2023/01/30 07:49:13;;;;;;;;;;;;;;;;;;4964717;28;20302;-77
2023/01/30 07:51:40;;;;;;;;;;;;;;;;;;4966540;28;19922;-77
2023/01/30 07:54:06;;;;;;;;;;;;;;;;;;4970518;28;19930;-77
2023/01/30 07:56:32;;;;;;;;;;;;;;;;;;4993628;28;19921;-79
2023/01/30 07:58:58;;;;;;;;;;;;;;;;;;4977928;28;19922;-78
2023/01/30 08:01:24;;;;;;;;;;;;;;;;;;4974325;28;19918;-79
2023/01/30 08:03:51;;;;;;;;;;;;;;;;;;4994508;28;19979;-78
2023/01/30 08:06:17;;;;;;;;;;;;;;;;;;4980060;28;19914;-78
2023/01/30 08:08:43;;;;;;;;;;;;;;;;;;4994977;28;20445;-78
2023/01/30 08:11:10;;;;;;;;;;;;;;;;;;4966775;28;20296;-78
2023/01/30 08:13:36;;;;;;;;;;;;;;;;;;4982338;28;19972;-78
2023/01/30 08:16:02;;;;;;;;;;;;;;;;;;5000616;28;19917;-78
2023/01/30 08:18:28;;;;;;;;;;;;;;;;;;4974418;28;19960;-78
2023/01/30 08:20:55;;;;;;;;;;;;;;;;;;5001837;28;19925;-78
2023/01/30 08:23:21;;;;;;;;;;;;;;;;;;4979859;28;19918;-78
2023/01/30 08:25:47;;;;;;;;;;;;;;;;;;4996701;28;19918;-78
2023/01/30 08:28:13;;;;;;;;;;;;;;;;;;4973474;28;19918;-78
2023/01/30 08:30:39;;;;;;;;;;;;;;;;;;4978148;28;19926;-78
2023/01/30 08:33:06;;;;;;;;;;;;;;;;;;4979166;28;19924;-78
2023/01/30 08:35:32;;;;;;;;;;;;;;;;;;4966786;28;19929;-78
2023/01/30 08:37:58;;;;;;;;;;;;;;;;;;4983506;28;19972;-79
2023/01/30 08:40:25;;;;;;;;;;;;;;;;;;4992208;28;19945;-79
2023/01/30 08:42:51;;;;;;;;;;;;;;;;;;4993733;28;19957;-78
2023/01/30 08:45:17;;;;;;;;;;;;;;;;;;4987814;28;19960;-78
2023/01/30 08:47:43;;;;;;;;;;;;;;;;;;4974400;28;20440;-78
2023/01/30 08:50:09;;;;;;;;;;;;;;;;;;5009141;28;19933;-79
2023/01/30 08:52:35;;;;;;;;;;;;;;;;;;4971663;28;19930;-79
2023/01/30 08:55:02;;;;;;;;;;;;;;;;;;4992471;28;20527;-78
2023/01/30 08:57:28;;;;;;;;;;;;;;;;;;4998274;28;19968;-78
2023/01/30 08:59:54;;;;;;;;;;;;;;;;;;4978895;28;19929;-78
2023/01/30 09:02:20;;;;;;;;;;;;;;;;;;4985239;28;19917;-78
2023/01/30 09:04:47;;;;;;;;;;;;;;;;;;4989416;28;19944;-78
2023/01/30 09:07:16;;;;;;;;;;;;;;;;;;5005595;28;19996;-78
2023/01/30 09:09:42;;;;;;;;;;;;;;;;;;4984487;28;20513;-78
2023/01/30 09:12:08;;;;;;;;;;;;;;;;;;4981652;28;19917;-78
2023/01/30 09:14:35;;;;;;;;;;;;;;;;;;5002246;28;19945;-78
2023/01/30 09:17:01;;;;;;;;;;;;;;;;;;4992477;28;20002;-78
2023/01/30 09:19:27;;;;;;;;;;;;;;;;;;4975454;28;19922;-78
2023/01/30 09:21:53;;;;;;;;;;;;;;;;;;4994717;28;21237;-78
2023/01/30 09:24:20;;;;;;;;;;;;;;;;;;4983493;28;19948;-78
2023/01/30 09:26:47;;;;;;;;;;;;;;;;;;4977146;28;19917;-78
2023/01/30 09:29:13;;;;;;;;;;;;;;;;;;4983715;28;19961;-78
2023/01/30 09:31:39;;;;;;;;;;;;;;;;;;4977196;28;19921;-78
2023/01/30 09:34:05;;;;;;;;;;;;;;;;;;4994256;28;19918;-78
2023/01/30 09:36:32;;;;;;;;;;;;;;;;;;5006392;28;19945;-78
2023/01/30 09:38:58;;;;;;;;;;;;;;;;;;4979411;28;19922;-78
2023/01/30 09:41:24;;;;;;;;;;;;;;;;;;4998201;28;19972;-78
2023/01/30 09:43:50;;;;;;;;;;;;;;;;;;4985972;28;20428;-78
2023/01/30 09:46:16;;;;;;;;;;;;;;;;;;4983963;28;19917;-78
2023/01/30 09:48:43;;;;;;;;;;;;;;;;;;4981543;28;20059;-79
2023/01/30 09:51:09;;;;;;;;;;;;;;;;;;4998853;28;19922;-78
2023/01/30 09:53:35;;;;;;;;;;;;;;;;;;4993736;28;20358;-78
2023/01/30 09:56:01;;;;;;;;;;;;;;;;;;4994886;28;21398;-78
2023/01/30 09:58:28;;;;;;;;;;;;;;;;;;4990800;28;20099;-77
2023/01/30 10:00:54;;;;;;;;;;;;;;;;;;4979398;28;20420;-78
2023/01/30 10:03:20;;;;;;;;;;;;;;;;;;4973951;28;19921;-78
2023/01/30 10:05:46;;;;;;;;;;;;;;;;;;4995575;28;19921;-78
2023/01/30 10:08:13;;;;;;;;;;;;;;;;;;4976933;28;19965;-77
2023/01/30 10:10:39;;;;;;;;;;;;;;;;;;4988568;28;19929;-79
2023/01/30 10:13:05;;;;;;;;;;;;;;;;;;5005484;28;19913;-79
2023/01/30 10:15:31;;;;;;;;;;;;;;;;;;4982975;28;19921;-78
2023/01/30 10:17:58;;;;;;;;;;;;;;;;;;4986801;28;19976;-77
2023/01/30 10:20:28;;;;;;;;;;;;;;;;;;4982941;28;19939;-77
2023/01/30 10:22:54;;;;;;;;;;;;;;;;;;4986008;28;19925;-77
2023/01/30 10:25:24;;;;;;;;;;;;;;;;;;4985230;28;19936;-79
2023/01/30 10:27:50;;;;;;;;;;;;;;;;;;4987266;28;20273;-80
2023/01/30 10:30:17;;;;;;;;;;;;;;;;;;4986173;28;19967;-79
2023/01/30 10:32:43;;;;;;;;;;;;;;;;;;4985867;28;19918;-80
2023/01/30 10:35:09;;;;;;;;;;;;;;;;;;4972769;28;19944;-77
2023/01/30 10:37:35;;;;;;;;;;;;;;;;;;4985076;28;19964;-78
2023/01/30 10:40:01;;;;;;;;;;;;;;;;;;5002748;28;20055;-77
2023/01/30 10:42:28;;;;;;;;;;;;;;;;;;4985974;28;19921;-78
2023/01/30 10:44:54;;;;;;;;;;;;;;;;;;4986271;28;19968;-79
2023/01/30 10:47:20;;;;;;;;;;;;;;;;;;4976699;28;19945;-77
2023/01/30 10:49:47;;;;;;;;;;;;;;;;;;4982501;28;19937;-78
2023/01/30 10:52:13;;;;;;;;;;;;;;;;;;4996971;28;19931;-79
2023/01/30 10:54:40;;;;;;;;;;;;;;;;;;4984413;28;20008;-78
2023/01/30 10:57:06;;;;;;;;;;;;;;;;;;4980693;28;20521;-79
2023/01/30 10:59:33;;;;;;;;;;;;;;;;;;4976860;28;19925;-79
2023/01/30 11:01:59;;;;;;;;;;;;;;;;;;4981723;28;19918;-79
2023/01/30 11:04:26;;;;;;;;;;;;;;;;;;4999715;28;19925;-80
2023/01/30 11:06:52;;;;;;;;;;;;;;;;;;4964276;28;19918;-78
2023/01/30 11:09:27;;;;;;;;;;;;;;;;;;4962952;28;20409;-78
2023/01/30 11:11:59;;;;;;;;;;;;;;;;;;4973414;28;19929;-78
2023/01/30 11:14:25;;;;;;;;;;;;;;;;;;4979794;28;19918;-79
2023/01/30 11:16:52;;;;;;;;;;;;;;;;;;4992550;28;20439;-79
2023/01/30 11:19:18;;;;;;;;;;;;;;;;;;4992599;28;20431;-79
2023/01/30 11:21:44;;;;;;;;;;;;;;;;;;4991977;28;19979;-79
2023/01/30 11:24:10;;;;;;;;;;;;;;;;;;4990348;28;20440;-79
2023/01/30 11:26:36;;;;;;;;;;;;;;;;;;4980689;28;19983;-79
2023/01/30 11:29:03;;;;;;;;;;;;;;;;;;4980495;28;19918;-78
2023/01/30 11:31:29;;;;;;;;;;;;;;;;;;5015185;28;19917;-79
2023/01/30 11:33:55;;;;;;;;;;;;;;;;;;5006761;28;20369;-79
2023/01/30 11:36:21;;;;;;;;;;;;;;;;;;4995217;28;20388;-79
2023/01/30 11:38:48;;;;;;;;;;;;;;;;;;4987883;28;19918;-78
2023/01/30 11:41:16;;;;;;;;;;;;;;;;;;4992422;28;20224;-79
2023/01/30 11:43:42;;;;;;;;;;;;;;;;;;5001598;28;19921;-79
2023/01/30 11:46:09;;;;;;;;;;;;;;;;;;4989844;28;19969;-79
2023/01/30 11:48:35;;;;;;;;;;;;;;;;;;4989859;28;20368;-79
2023/01/30 11:51:03;;;;;;;;;;;;;;;;;;4986865;28;19922;-81
2023/01/30 11:53:29;;;;;;;;;;;;;;;;;;4987382;28;19930;-79
2023/01/30 11:55:55;;;;;;;;;;;;;;;;;;4979396;28;20278;-77
2023/01/30 11:58:21;;;;;;;;;;;;;;;;;;4978633;28;19980;-79
2023/01/30 12:00:48;;;;;;;;;;;;;;;;;;4992671;28;19928;-80
2023/01/30 12:03:14;;;;;;;;;;;;;;;;;;4991872;28;19985;-79
2023/01/30 12:05:44;;;;;;;;;;;;;;;;;;4989204;28;19917;-80
2023/01/30 12:08:10;;;;;;;;;;;;;;;;;;4986044;28;19964;-80
2023/01/30 12:10:36;;;;;;;;;;;;;;;;;;4978674;28;19932;-80
2023/01/30 12:13:02;;;;;;;;;;;;;;;;;;4982375;28;19992;-80
2023/01/30 12:15:28;;;;;;;;;;;;;;;;;;5001715;28;19917;-81
2023/01/30 12:17:55;;;;;;;;;;;;;;;;;;5002488;28;19921;-79
2023/01/30 12:20:21;;;;;;;;;;;;;;;;;;4979974;28;19926;-79
2023/01/30 12:22:47;;;;;;;;;;;;;;;;;;4981402;28;19913;-83
2023/01/30 12:25:13;;;;;;;;;;;;;;;;;;4985272;28;19928;-81
2023/01/30 12:27:40;;;;;;;;;;;;;;;;;;4971544;28;19917;-81
2023/01/30 12:30:06;;;;;;;;;;;;;;;;;;4981705;28;19933;-81
2023/01/30 12:32:32;;;;;;;;;;;;;;;;;;4983306;28;20352;-81
2023/01/30 12:34:58;;;;;;;;;;;;;;;;;;4985470;28;19936;-79
2023/01/30 12:37:24;;;;;;;;;;;;;;;;;;4982093;28;19953;-78
2023/01/30 12:39:52;;;;;;;;;;;;;;;;;;4960731;28;19922;-78
2023/01/30 12:42:18;;;;;;;;;;;;;;;;;;4970979;28;19992;-79
2023/01/30 12:44:45;;;;;;;;;;;;;;;;;;4980815;28;19924;-80
2023/01/30 12:47:11;;;;;;;;;;;;;;;;;;4990540;28;19925;-80
2023/01/30 12:49:37;;;;;;;;;;;;;;;;;;4994147;28;19978;-81
2023/01/30 12:52:03;;;;;;;;;;;;;;;;;;4984956;28;20377;-80
2023/01/30 12:54:30;;;;;;;;;;;;;;;;;;4980741;28;19928;-81
2023/01/30 12:56:56;;;;;;;;;;;;;;;;;;4982494;28;19925;-81
2023/01/30 12:59:22;;;;;;;;;;;;;;;;;;4995596;28;19918;-81
2023/01/30 13:01:48;;;;;;;;;;;;;;;;;;4976982;28;20003;-80
2023/01/30 13:04:14;;;;;;;;;;;;;;;;;;4976715;28;19918;-80
2023/01/30 13:06:41;;;;;;;;;;;;;;;;;;4976664;28;19918;-80
2023/01/30 13:09:07;;;;;;;;;;;;;;;;;;4976102;28;20286;-80
2023/01/30 13:11:33;;;;;;;;;;;;;;;;;;4980348;28;20389;-81
2023/01/30 13:13:59;;;;;;;;;;;;;;;;;;4981258;28;19917;-81
2023/01/30 13:16:26;;;;;;;;;;;;;;;;;;4995453;28;19917;-81
2023/01/30 13:18:52;;;;;;;;;;;;;;;;;;4983257;28;20394;-81
2023/01/30 13:21:18;;;;;;;;;;;;;;;;;;4979118;28;20392;-80
2023/01/30 13:23:44;;;;;;;;;;;;;;;;;;4991465;28;20377;-80
2023/01/30 13:26:11;;;;;;;;;;;;;;;;;;4986096;28;19957;-80
2023/01/30 13:28:37;;;;;;;;;;;;;;;;;;4987979;28;19913;-79
2023/01/30 13:31:03;;;;;;;;;;;;;;;;;;4984969;28;19929;-79
2023/01/30 13:33:29;;;;;;;;;;;;;;;;;;4997626;28;20035;-80
2023/01/30 13:35:56;;;;;;;;;;;;;;;;;;5020029;28;19968;-80
2023/01/30 13:38:22;;;;;;;;;;;;;;;;;;4990893;28;19995;-80
2023/01/30 13:40:49;;;;;;;;;;;;;;;;;;4981914;28;19921;-80
2023/01/30 13:43:15;;;;;;;;;;;;;;;;;;4978488;28;19925;-80
2023/01/30 13:45:42;;;;;;;;;;;;;;;;;;4998082;28;19921;-80
2023/01/30 13:48:08;;;;;;;;;;;;;;;;;;4988495;28;19968;-80
2023/01/30 13:50:34;;;;;;;;;;;;;;;;;;4983226;28;19929;-80
2023/01/30 13:53:00;;;;;;;;;;;;;;;;;;4999545;28;19929;-80
2023/01/30 13:55:27;;;;;;;;;;;;;;;;;;4993929;28;19921;-80
2023/01/30 13:57:53;;;;;;;;;;;;;;;;;;5008480;28;19922;-80
2023/01/30 14:00:19;;;;;;;;;;;;;;;;;;4976139;28;19921;-80
2023/01/30 14:02:45;;;;;;;;;;;;;;;;;;4995154;28;19987;-80
2023/01/30 14:05:11;;;;;;;;;;;;;;;;;;4994704;28;19971;-80
2023/01/30 14:07:38;;;;;;;;;;;;;;;;;;4999714;28;19913;-80
2023/01/30 14:10:04;;;;;;;;;;;;;;;;;;4976977;28;19925;-79
2023/01/30 14:12:30;;;;;;;;;;;;;;;;;;5003244;28;19985;-80
2023/01/30 14:14:57;;;;;;;;;;;;;;;;;;4980636;28;20377;-80
2023/01/30 14:17:23;;;;;;;;;;;;;;;;;;4972267;28;19936;-79
2023/01/30 14:19:49;;;;;;;;;;;;;;;;;;4998068;28;20052;-79
2023/01/30 14:22:16;;;;;;;;;;;;;;;;;;4984446;28;19925;-81
2023/01/30 14:24:42;;;;;;;;;;;;;;;;;;4997478;28;19918;-80
2023/01/30 14:27:08;;;;;;;;;;;;;;;;;;4977184;28;19917;-79
2023/01/30 14:29:34;;;;;;;;;;;;;;;;;;5007137;28;19926;-80
2023/01/30 14:32:01;;;;;;;;;;;;;;;;;;4975559;28;19936;-80
2023/01/30 14:34:27;;;;;;;;;;;;;;;;;;4962931;28;19937;-80
2023/01/30 14:36:53;;;;;;;;;;;;;;;;;;4976210;28;19987;-80
2023/01/30 14:39:20;;;;;;;;;;;;;;;;;;4985777;28;20586;-81
2023/01/30 14:41:46;;;;;;;;;;;;;;;;;;4990048;28;19941;-81
2023/01/30 14:44:12;;;;;;;;;;;;;;;;;;4985745;28;19926;-81
2023/01/30 14:46:38;;;;;;;;;;;;;;;;;;4990322;28;20357;-80
2023/01/30 14:49:05;;;;;;;;;;;;;;;;;;4986699;28;19956;-80
2023/01/30 16:14:04;;;;;;;;;;;;;;;;;;5880598;23;20289;-79
2023/01/30 16:16:31;;;;;;;;;;;;;;;;;;4962091;28;20400;-79
2023/01/30 16:18:58;;;;;;;;;;;;;;;;;;4985211;28;19929;-79
2023/01/30 16:21:24;;;;;;;;;;;;;;;;;;4978849;28;19973;-79
2023/01/30 16:23:50;;;;;;;;;;;;;;;;;;4981412;28;19921;-79
2023/01/30 16:26:16;;;;;;;;;;;;;;;;;;4963983;28;19925;-79
2023/01/30 16:28:43;;;;;;;;;;;;;;;;;;4959062;28;19924;-79
2023/01/30 16:31:09;;;;;;;;;;;;;;;;;;4952526;28;19930;-80
2023/01/30 16:33:35;;;;;;;;;;;;;;;;;;4968765;28;19925;-79
2023/01/30 16:36:01;;;;;;;;;;;;;;;;;;4951847;28;19962;-79
2023/01/30 16:38:28;;;;;;;;;;;;;;;;;;4981844;28;19922;-79
2023/01/30 16:40:54;;;;;;;;;;;;;;;;;;4977326;28;20376;-80
2023/01/30 16:43:20;;;;;;;;;;;;;;;;;;4994025;28;20448;-79
2023/01/30 16:45:47;;;;;;;;;;;;;;;;;;4976661;28;19918;-79
2023/01/30 16:48:13;;;;;;;;;;;;;;;;;;4960470;28;19922;-80
2023/01/30 16:50:39;;;;;;;;;;;;;;;;;;4961858;28;19922;-80
2023/01/30 16:53:05;;;;;;;;;;;;;;;;;;4962889;28;19970;-79
2023/01/30 16:55:32;;;;;;;;;;;;;;;;;;4989819;28;19921;-79
2023/01/30 16:57:59;;;;;;;;;;;;;;;;;;4968925;28;20520;-79
2023/01/30 17:00:25;;;;;;;;;;;;;;;;;;4984272;28;19922;-83
2023/01/30 17:02:51;;;;;;;;;;;;;;;;;;4972832;28;19945;-79
2023/01/30 17:05:17;;;;;;;;;;;;;;;;;;4975681;28;20249;-78
2023/01/30 17:07:44;;;;;;;;;;;;;;;;;;4965061;28;19922;-79
2023/01/30 17:10:10;;;;;;;;;;;;;;;;;;4987699;28;19933;-79
2023/01/30 17:12:36;;;;;;;;;;;;;;;;;;4972098;28;19922;-78
2023/01/30 17:15:02;;;;;;;;;;;;;;;;;;4978531;28;19926;-78
2023/01/30 17:17:29;;;;;;;;;;;;;;;;;;4962729;28;19921;-81
2023/01/30 17:19:55;;;;;;;;;;;;;;;;;;4981792;28;19922;-81
2023/01/30 17:22:23;;;;;;;;;;;;;;;;;;4967042;28;20381;-80
2023/01/30 17:24:49;;;;;;;;;;;;;;;;;;4962977;28;19917;-80
2023/01/30 17:27:15;;;;;;;;;;;;;;;;;;4964146;28;20408;-81
2023/01/30 17:29:44;;;;;;;;;;;;;;;;;;4968620;28;19926;-80
2023/01/30 17:32:10;;;;;;;;;;;;;;;;;;4961965;28;19918;-81
2023/01/30 17:34:39;;;;;;;;;;;;;;;;;;4981483;28;19934;-81
2023/01/30 17:37:05;;;;;;;;;;;;;;;;;;4963640;28;20173;-78
2023/01/30 17:39:32;;;;;;;;;;;;;;;;;;4967889;28;19918;-80
2023/01/30 17:41:58;;;;;;;;;;;;;;;;;;4986289;28;20023;-80
2023/01/30 17:44:24;;;;;;;;;;;;;;;;;;4968531;28;19976;-78
2023/01/30 17:46:51;;;;;;;;;;;;;;;;;;4965336;28;20340;-79
2023/01/30 17:49:17;;;;;;;;;;;;;;;;;;4960754;28;19945;-80
2023/01/30 17:51:43;;;;;;;;;;;;;;;;;;4968403;28;20378;-80
2023/01/30 17:54:10;;;;;;;;;;;;;;;;;;4962963;28;19925;-79
2023/01/30 17:56:37;;;;;;;;;;;;;;;;;;4956829;28;19926;-78
2023/01/30 17:59:03;;;;;;;;;;;;;;;;;;4958144;28;19918;-80
2023/01/30 18:01:29;;;;;;;;;;;;;;;;;;4978146;28;20103;-78
2023/01/30 18:03:55;;;;;;;;;;;;;;;;;;4962572;28;19926;-78
2023/01/30 18:06:21;;;;;;;;;;;;;;;;;;4958897;28;19925;-79